首页
METAR-TAF:

METAR-TAF

机场 :

Gore Bay, 安大略省, 加拿大

纬度: 45-53N, 经度: 082-34W, 海拔: 193米

当前天气观测

该预报发布于25分钟前的20:00 UTC
风速17节,风向西北,有时为27节阵风
温度 -7°C
湿度 62%
气压 1028 hPa
能見度: 14.5公里
阴天层高于4700英尺

METAR: CYZE 192000Z AUTO 31017G27KT 9SM OVC047 M07/M13 A3037 RMK SLP300

时间: 15:25 (20:25 UTC)

预报

该预报发布于47分钟前的19:38 UTC
预报有效从19日的 20点(UTC)到 19日的 23点(UTC)
风速12节,风向西,有时为22节阵风
能見度: 10公里
多云层高于3000英尺
短暂存在
从 19日的 20点(UTC)到 19日的 23点(UTC)
能見度: 3.2公里
小阵雪

TAF: CYZE 191938Z 1920/1923 28012G22KT P6SM BKN030 TEMPO 1920/1923 2SM -SHSN RMK FCST BASED ON AUTO OBS. NXT FCST WILL BE ISSUED AT 201045Z

超过4000个机场的气象观测和天气预报(METAR&TAF报告)。

可查询的气象台以黄色和红色小点在地图上表示。

将鼠标移到小点上方,可查看气象台名称。

然后点击查看天气观测和预报。

如需切换地图:点击带黑十字的绿色按钮放大地图;点击带横线的绿色按钮缩小地图;或者点击绿色箭头查看邻近地区的地图。


METAR-TAF: